Flight Track Log - Related Links

Times and Time Zones

All times are in EST time to prevent confusion due to time zone crossing. See the WIG7407 flight status page for this flight to view local times or setup timezone preferences in your user account.

Time Position Orientation Groundspeed Altitude Reporting Facility
EST Latitude Longitude Course Direction KTS MPH feet Rate Location/Type
Mon 07:35:14 PM 44.5725 -73.4750 189° South 95 109 3,700  Level Boston Center
Mon 07:36:15 PM 44.5444 -73.4733 178° South 100 115 4,700 984 Climbing Boston Center
Mon 07:37:16 PM 44.5153 -73.4792 188° South 106 122 5,700 1,082 Climbing Boston Center
Mon 07:38:17 PM 44.4831 -73.4853 188° South 115 132 6,900 1,082 Climbing Boston Center
Mon 07:39:00 PM 44.3836 -73.5055 189° South  Level FlightAware Approximate
Mon 07:39:18 PM 44.4497 -73.4922 188° South 116 133 7,900  Level Boston Center
Mon 07:40:00 PM 44.3395 -73.5153 189° South  Level FlightAware Approximate
Mon 07:40:19 PM 44.4108 -73.4997 188° South 134 154 8,200  Level Boston Center
Mon 07:41:20 PM 44.3647 -73.5067 186° South 166 191 8,100 -49 Descending Boston Center
Mon 07:42:21 PM 44.3194 -73.5161 188° South 167 192 8,100  Level Boston Center
Mon 07:43:22 PM 44.2692 -73.5267 189° South 170 196 8,100 49 Level Boston Center
Mon 07:44:23 PM 44.2222 -73.5347 187° South 171 197 8,200  Climbing Boston Center
Mon 07:45:24 PM 44.1761 -73.5433 188° South 171 197 8,100 -98 Descending Boston Center
Mon 07:46:25 PM 44.1253 -73.5528 188° South 171 197 8,000 -49 Descending Boston Center
Mon 07:47:26 PM 44.0792 -73.5611 187° South 170 196 8,000  Level Boston Center
Mon 07:48:27 PM 44.0331 -73.5692 187° South 169 194 8,000  Level Boston Center
Mon 07:49:28 PM 43.9828 -73.5783 187° South 170 196 8,000  Level Boston Center
Mon 07:50:29 PM 43.9369 -73.5867 187° South 169 194 8,000  Level Boston Center
Mon 07:51:30 PM 43.8914 -73.5936 186° South 166 191 8,000 -49 Level Boston Center
Mon 07:52:31 PM 43.8414 -73.6036 188° South 169 194 7,900 49 Descending Boston Center
Mon 07:53:32 PM 43.7953 -73.6119 187° South 168 193 8,100 49 Climbing Boston Center
Mon 07:54:33 PM 43.7497 -73.6203 188° South 167 192 8,000 -49 Descending Boston Center
Mon 07:55:34 PM 43.7033 -73.6289 188° South 170 196 8,000  Level Boston Center
Mon 07:56:35 PM 43.6539 -73.6372 187° South 168 193 8,000 49 Level Boston Center
Mon 07:57:36 PM 43.6075 -73.6456 187° South 168 193 8,100  Climbing Boston Center
Mon 07:58:23 PM 43.5733 -73.6506 186° South 165 190 8,000 -113 Descending Boston Center
Mon 07:58:29 PM 43.5689 -73.6519 193° South 165 190 8,000 -429 Level Boston Center
Mon 07:58:37 PM 43.5617 -73.6533 188° South 166 191 7,900  Descending Boston Center
Mon 07:59:29 PM 43.5222 -73.6600 187° South 167 192 8,000  Climbing Boston Center
Mon 07:59:38 PM 43.5167 -73.6633 204° Southwest 166 191 7,900 98 Descending Boston Center
Mon 08:00:30 PM 43.4758 -73.6678 185° South 169 194 8,100  Climbing Boston Center
Mon 08:00:39 PM 43.4700 -73.6700 195° South 167 192 7,900 -257 Descending Boston Center
Mon 08:01:40 PM 43.4242 -73.6792 188° South 167 192 7,800  Descending Boston Center
Mon 08:02:41 PM 43.3725 -73.6872 186° South 167 192 7,900 49 Climbing Boston Center
Mon 08:03:42 PM 43.3275 -73.6944 187° South 161 185 7,900  Level Boston Center
Mon 08:04:39 PM 43.2847 -73.7028 188° South 164 189 7,900 -197 Level Boston Center
Mon 08:04:43 PM 43.2806 -73.7031 183° South 168 193 7,700 -1,000 Descending Boston Center
Mon 08:05:39 PM 43.2353 -73.7156 191° South 181 208 6,900 -885 Descending Boston Center
Mon 08:05:44 PM 43.2306 -73.7153 178° South 181 208 6,800 -909 Descending Boston Center
Mon 08:06:45 PM 43.1808 -73.7228 186° South 180 207 5,900 -774 Descending Boston Center
Mon 08:06:46 PM 43.1803 -73.7233 216° Southwest 182 209 6,000 -618 Climbing Boston Center
Mon 08:07:53 PM 43.1247 -73.7336 188° South 178 205 5,200 -793 Descending Boston Center
Mon 08:08:47 PM 43.0831 -73.7414 188° South 175 201 4,400 -800 Descending Boston Center
Mon 08:08:53 PM 43.0756 -73.7433 191° South 175 201 4,400 -1,082 Level Boston Center
Mon 08:09:48 PM 43.0306 -73.7506 187° South 176 203 3,300 -1,082 Descending Boston Center
Mon 08:09:54 PM 43.0267 -73.7533 208° Southwest 175 201 3,300 -689 Level Boston Center
Mon 08:10:49 PM 42.9817 -73.7589 185° South 177 204 2,600 -590 Descending Boston Center
Mon 08:10:55 PM 42.9781 -73.7603 196° South 177 204 2,700 -98 Climbing Boston Center
Mon 08:11:50 PM 42.9383 -73.7656 186° South 160 184 2,500 -100 Descending Boston Center
Mon 08:11:55 PM 42.9342 -73.7658 183° South 157 181 2,600 98 Climbing Boston Center
Mon 08:12:51 PM 42.8956 -73.7719 187° South 155 178 2,600  Level Boston Center
Mon 08:12:56 PM 42.8922 -73.7719 180° South 151 174 2,600 -197 Level Boston Center
Mon 08:13:52 PM 42.8519 -73.7733 181° South 156 180 2,400 -98 Descending Boston Center
Mon 08:13:57 PM 42.8489 -73.7747 198° South 157 181 2,500 -610 Climbing Boston Center
Mon 08:14:51 PM 42.8053 -73.7778 183° South 164 189 1,800 -857 Descending Boston Center
Mon 08:14:53 PM 42.8064 -73.7781 350° North 161 185 1,700 -787 Descending Boston Center
Mon 08:15:52 PM 42.7644 -73.7783 180° South 141 162 1,000 -787 Descending Boston Center
Mon 08:15:54 PM 42.7642 -73.7783 180° South 151 174 900 -762 Descending Boston Center
Mon 08:16:55 PM 42.7497 -73.7986 226° Southwest 99 114 200 -689 Descending Boston Center
Mon 08:18:00 PM 42.7491 -73.8020 190° South  Level Estimated
Mon 08:25:00 PM 42.7491 -73.8020 190° South  Level Estimated
Mon 08:26:00 PM 42.7491 -73.8020 190° South  Level Estimated

Login

Don't have an account? Register now (free) for customized features, flight alerts, and more!